Time;durP1;ratioP1;P1;durP2;ratioP2;P2;SDS_P1;SDS_P2;PMS_P1;PMS_P2;Temp;Humidity;BMP_temperature;BMP_pressure;BME280_temperature;BME280_humidity;BME280_pressure;Samples;Min_cycle;Max_cycle;Signal;HPM_P1;HPM_P2
2024/01/28 00:01:32;;;;;;;20.05;10.27;;;2.60;99.90;;;;;;5140458;27;20060;-61
2024/01/28 00:03:58;;;;;;;25.38;9.55;;;2.60;99.90;;;;;;5140349;27;20028;-60
2024/01/28 00:06:24;;;;;;;14.88;8.95;;;2.70;99.90;;;;;;5105435;27;20042;-60
2024/01/28 00:08:50;;;;;;;17.63;9.45;;;2.70;99.90;;;;;;5140277;27;20031;-59
2024/01/28 00:11:15;;;;;;;16.48;10.07;;;2.70;99.90;;;;;;5140231;27;20031;-60
2024/01/28 00:13:41;;;;;;;18.48;9.73;;;2.70;99.90;;;;;;5122383;27;20420;-60
2024/01/28 00:16:19;;;;;;;20.80;10.48;;;2.80;99.90;;;;;;5140184;27;20299;-60
2024/01/28 00:18:45;;;;;;;14.95;9.15;;;2.80;99.90;;;;;;5140230;27;20050;-61
2024/01/28 00:21:11;;;;;;;15.88;8.82;;;2.70;99.90;;;;;;5140115;27;20027;-60
2024/01/28 00:23:37;;;;;;;22.42;9.80;;;2.70;99.90;;;;;;5140007;27;20038;-61
2024/01/28 00:26:03;;;;;;;19.52;9.85;;;2.70;99.90;;;;;;5121908;27;20027;-61
2024/01/28 00:28:29;;;;;;;15.73;9.00;;;2.70;99.90;;;;;;5122189;27;20322;-60
2024/01/28 00:30:55;;;;;;;17.50;8.55;;;2.70;99.90;;;;;;5139959;27;20035;-60
2024/01/28 00:33:22;;;;;;;18.13;9.23;;;2.60;99.90;;;;;;5139697;27;20302;-59
2024/01/28 00:35:48;;;;;;;24.60;10.23;;;2.60;99.90;;;;;;5139676;27;20065;-60
2024/01/28 00:38:13;;;;;;;19.88;9.40;;;2.60;99.90;;;;;;5139458;27;20074;-60
2024/01/28 00:40:39;;;;;;;17.50;9.50;;;2.60;99.90;;;;;;5139506;27;20023;-60
2024/01/28 00:43:05;;;;;;;18.38;9.45;;;2.60;99.90;;;;;;5121530;27;20091;-60
2024/01/28 00:45:32;;;;;;;19.10;9.60;;;2.60;99.90;;;;;;5121757;27;20042;-60
2024/01/28 00:47:58;;;;;;;17.80;9.23;;;2.50;99.90;;;;;;5139545;27;20031;-59
2024/01/28 00:50:24;;;;;;;19.90;9.75;;;2.50;99.90;;;;;;5139465;27;20035;-60
2024/01/28 00:52:50;;;;;;;16.00;9.27;;;2.50;99.90;;;;;;5139346;27;20423;-60
2024/01/28 00:55:16;;;;;;;13.80;8.18;;;2.40;99.90;;;;;;5139330;27;20084;-60
2024/01/28 00:57:42;;;;;;;19.77;9.20;;;2.40;99.90;;;;;;5121575;27;20291;-60
2024/01/28 01:00:09;;;;;;;17.58;9.57;;;2.30;99.90;;;;;;5138763;27;20099;-60
2024/01/28 01:02:35;;;;;;;18.38;9.60;;;2.20;99.90;;;;;;5139180;27;20039;-60
2024/01/28 01:05:01;;;;;;;19.23;10.10;;;2.20;99.90;;;;;;5121657;27;20416;-59
2024/01/28 01:07:27;;;;;;;17.23;9.10;;;2.10;99.90;;;;;;5139051;27;20114;-59
2024/01/28 01:09:53;;;;;;;17.75;9.38;;;2.10;99.90;;;;;;5139354;27;20046;-60
2024/01/28 01:12:19;;;;;;;19.65;9.00;;;2.10;99.90;;;;;;5104087;27;20120;-60
2024/01/28 01:14:44;;;;;;;18.23;9.45;;;2.20;99.90;;;;;;5139004;27;20031;-60
2024/01/28 01:17:10;;;;;;;21.10;9.23;;;2.10;99.90;;;;;;5121027;27;20037;-60
2024/01/28 01:19:36;;;;;;;19.52;9.50;;;2.10;99.90;;;;;;5138886;27;20084;-60
2024/01/28 01:22:03;;;;;;;15.10;8.82;;;2.00;99.90;;;;;;5138899;27;20031;-60
2024/01/28 01:24:29;;;;;;;16.38;8.98;;;1.90;99.90;;;;;;5138860;27;20118;-60
2024/01/28 01:26:55;;;;;;;21.42;9.98;;;1.90;99.90;;;;;;5121137;27;20060;-59
2024/01/28 01:29:21;;;;;;;20.05;9.68;;;1.90;99.90;;;;;;5138674;27;20050;-60
2024/01/28 01:31:47;;;;;;;20.67;9.50;;;1.90;99.90;;;;;;5120728;27;20302;-59
2024/01/28 01:34:14;;;;;;;19.77;9.20;;;1.90;99.90;;;;;;5120812;27;20032;-60
2024/01/28 01:36:44;;;;;;;18.05;9.02;;;1.90;99.90;;;;;;5120931;27;20345;-60
2024/01/28 01:39:10;;;;;;;19.88;9.38;;;1.80;99.90;;;;;;5138436;27;20050;-60
2024/01/28 01:41:35;;;;;;;18.98;9.35;;;1.90;99.90;;;;;;5138526;27;20023;-60
2024/01/28 01:44:01;;;;;;;17.30;9.00;;;1.80;99.90;;;;;;5138467;27;20056;-59
2024/01/28 01:46:29;;;;;;;15.30;8.70;;;1.80;99.90;;;;;;5138743;27;20264;-62
2024/01/28 01:48:55;;;;;;;17.77;8.82;;;1.80;99.90;;;;;;5138366;27;20106;-60
2024/01/28 01:51:23;;;;;;;16.38;8.95;;;1.80;99.90;;;;;;5120441;27;20070;-60
2024/01/28 01:53:50;;;;;;;18.20;9.18;;;1.80;99.90;;;;;;5120396;27;20344;-60
2024/01/28 01:56:17;;;;;;;18.65;8.85;;;1.80;99.90;;;;;;5120778;27;20084;-60
2024/01/28 01:58:46;;;;;;;18.77;8.63;;;1.80;99.90;;;;;;5120661;27;20031;-60
2024/01/28 02:01:16;;;;;;;14.25;8.00;;;1.80;99.90;;;;;;5138242;27;20405;-60
2024/01/28 02:03:42;;;;;;;14.55;7.95;;;1.70;99.90;;;;;;5138292;27;20034;-60
2024/01/28 02:06:11;;;;;;;12.80;7.85;;;1.80;99.90;;;;;;5138288;27;20035;-61
2024/01/28 02:08:37;;;;;;;14.02;7.63;;;1.80;99.90;;;;;;5120331;27;20267;-60
2024/01/28 02:11:05;;;;;;;16.55;8.00;;;1.80;99.90;;;;;;5138011;27;20114;-61
2024/01/28 02:13:30;;;;;;;14.70;8.20;;;1.80;99.90;;;;;;5119212;27;20410;-60
2024/01/28 02:15:56;;;;;;;15.77;8.00;;;1.80;99.90;;;;;;5138045;27;20050;-60
2024/01/28 02:18:22;;;;;;;16.13;8.38;;;1.80;99.90;;;;;;5120209;27;20112;-60
2024/01/28 02:20:48;;;;;;;15.30;8.30;;;1.80;99.90;;;;;;5138429;27;20106;-60
2024/01/28 02:23:23;;;;;;;13.35;7.53;;;1.90;99.90;;;;;;5120042;28;20032;-61
2024/01/28 02:25:49;;;;;;;15.85;7.97;;;2.00;99.90;;;;;;5138084;28;20291;-60
2024/01/28 02:28:16;;;;;;;13.55;7.22;;;1.90;99.90;;;;;;5103316;28;20035;-61
2024/01/28 02:30:42;;;;;;;16.83;7.95;;;1.90;99.90;;;;;;5137853;28;20027;-61
2024/01/28 02:33:08;;;;;;;15.05;7.68;;;1.90;99.90;;;;;;5138034;28;20038;-60
2024/01/28 02:35:36;;;;;;;14.25;6.93;;;1.90;99.90;;;;;;5120078;28;20031;-60
2024/01/28 02:38:02;;;;;;;19.38;8.40;;;1.90;99.90;;;;;;5119786;28;20054;-60
2024/01/28 02:40:28;;;;;;;17.15;7.53;;;2.00;99.90;;;;;;5137805;28;20027;-60
2024/01/28 02:42:54;;;;;;;14.32;7.47;;;2.00;99.90;;;;;;5137742;28;20035;-60
2024/01/28 02:45:20;;;;;;;14.20;7.22;;;1.90;99.90;;;;;;5137743;28;20068;-61
2024/01/28 02:47:46;;;;;;;15.18;7.10;;;1.90;99.90;;;;;;5119837;28;20092;-61
2024/01/28 02:50:12;;;;;;;18.30;7.20;;;1.90;99.90;;;;;;5119954;28;20084;-60
2024/01/28 02:52:38;;;;;;;13.13;7.30;;;1.80;99.90;;;;;;5137798;28;20324;-61
2024/01/28 02:55:04;;;;;;;13.93;6.88;;;1.80;99.90;;;;;;5137686;28;20027;-60
2024/01/28 02:57:30;;;;;;;13.32;6.72;;;1.70;99.90;;;;;;5120029;28;20272;-61
2024/01/28 02:59:57;;;;;;;14.00;6.93;;;1.70;99.90;;;;;;5137591;28;20026;-61
2024/01/28 03:02:23;;;;;;;14.85;7.18;;;1.70;99.90;;;;;;5137976;28;20365;-60
2024/01/28 03:04:49;;;;;;;13.43;7.32;;;1.80;99.90;;;;;;5137581;28;20062;-61
2024/01/28 03:07:16;;;;;;;14.90;7.32;;;1.70;99.90;;;;;;5119928;28;20067;-60
2024/01/28 03:09:41;;;;;;;14.40;7.28;;;1.80;99.90;;;;;;5137523;28;20027;-60
2024/01/28 03:12:07;;;;;;;14.88;7.18;;;1.70;99.90;;;;;;5119604;28;20039;-61
2024/01/28 03:14:34;;;;;;;16.50;6.78;;;1.80;99.90;;;;;;5137432;28;20335;-60
2024/01/28 03:17:00;;;;;;;13.10;7.18;;;1.70;99.90;;;;;;5137696;28;20031;-61
2024/01/28 03:19:26;;;;;;;12.15;6.60;;;1.80;99.90;;;;;;5137486;28;20027;-60
2024/01/28 03:21:52;;;;;;;16.13;6.85;;;1.60;99.90;;;;;;5137375;28;20047;-61
2024/01/28 03:24:18;;;;;;;9.73;6.88;;;1.60;99.90;;;;;;5139219;27;20031;-61
2024/01/28 03:26:44;;;;;;;10.85;6.80;;;1.60;99.90;;;;;;5141105;27;20063;-61
2024/01/28 03:29:11;;;;;;;15.35;7.38;;;1.70;99.90;;;;;;5141380;27;20354;-60
2024/01/28 03:31:38;;;;;;;13.40;7.05;;;1.70;99.90;;;;;;5140969;27;20092;-60
2024/01/28 03:34:04;;;;;;;14.20;7.43;;;1.60;99.90;;;;;;5123534;27;20023;-60
2024/01/28 03:36:30;;;;;;;14.18;6.90;;;1.60;99.90;;;;;;5140939;27;20041;-60
2024/01/28 03:38:56;;;;;;;15.00;7.22;;;1.50;99.90;;;;;;5105891;27;20120;-61
2024/01/28 03:41:22;;;;;;;10.98;6.88;;;1.50;99.90;;;;;;5123045;27;20438;-61
2024/01/28 03:43:47;;;;;;;11.52;6.78;;;1.40;99.90;;;;;;5140843;27;20096;-60
2024/01/28 03:46:13;;;;;;;11.45;7.13;;;1.40;99.90;;;;;;5141034;27;20027;-61
2024/01/28 03:48:39;;;;;;;13.48;6.72;;;1.50;99.90;;;;;;5140718;27;20109;-61
2024/01/28 03:51:06;;;;;;;17.42;7.45;;;1.50;99.90;;;;;;5122815;27;20114;-61
2024/01/28 03:53:32;;;;;;;20.23;6.57;;;1.40;99.90;;;;;;5140630;27;20071;-61
2024/01/28 03:55:58;;;;;;;14.10;6.78;;;1.50;99.90;;;;;;5122796;27;20034;-61
2024/01/28 03:58:24;;;;;;;13.38;6.57;;;1.40;99.90;;;;;;5122615;27;20383;-61
2024/01/28 04:00:50;;;;;;;14.55;6.60;;;1.40;99.90;;;;;;5140626;27;20059;-61
2024/01/28 04:03:16;;;;;;;12.10;7.10;;;1.30;99.90;;;;;;5122587;27;20076;-61
2024/01/28 04:05:43;;;;;;;14.75;6.70;;;1.40;99.90;;;;;;5140654;27;20354;-60
2024/01/28 04:08:12;;;;;;;12.63;6.65;;;1.40;99.90;;;;;;5140633;27;20027;-60
2024/01/28 04:10:38;;;;;;;13.20;6.53;;;1.40;99.90;;;;;;5140296;27;20023;-60
2024/01/28 04:13:04;;;;;;;13.18;6.13;;;1.40;99.90;;;;;;5071972;27;20181;-59
2024/01/28 04:15:30;;;;;;;12.98;6.38;;;1.50;99.90;;;;;;5105494;27;20375;-61
2024/01/28 04:17:56;;;;;;;13.18;6.65;;;1.60;99.90;;;;;;5122259;27;20034;-61
2024/01/28 04:20:21;;;;;;;16.92;6.55;;;1.70;99.90;;;;;;5122092;27;20027;-61
2024/01/28 04:22:47;;;;;;;10.70;5.97;;;1.70;99.90;;;;;;5122290;27;20039;-61
2024/01/28 04:25:13;;;;;;;11.07;6.10;;;1.60;99.90;;;;;;5140189;27;20114;-61
2024/01/28 04:27:39;;;;;;;14.93;6.38;;;1.60;99.90;;;;;;5139962;27;20395;-61
2024/01/28 04:30:06;;;;;;;14.15;6.43;;;1.70;99.90;;;;;;5122235;27;20067;-61
2024/01/28 04:32:32;;;;;;;10.70;6.15;;;1.60;99.90;;;;;;5121156;27;20126;-61
2024/01/28 04:34:58;;;;;;;12.95;6.10;;;1.60;99.90;;;;;;5139195;27;20367;-61
2024/01/28 04:37:26;;;;;;;14.02;6.15;;;1.60;99.90;;;;;;5121495;27;20298;-61
2024/01/28 04:39:53;;;;;;;9.65;6.15;;;1.60;99.90;;;;;;5105671;27;20031;-60
2024/01/28 04:42:24;;;;;;;11.02;5.80;;;1.70;99.90;;;;;;5139738;27;20035;-60
2024/01/28 04:44:51;;;;;;;9.63;5.68;;;1.60;99.90;;;;;;5106031;27;20042;-61
2024/01/28 04:47:17;;;;;;;12.45;5.90;;;1.70;99.90;;;;;;5139642;27;20031;-60
2024/01/28 04:49:43;;;;;;;11.32;5.95;;;1.60;99.90;;;;;;5139627;27;20031;-60
2024/01/28 04:52:09;;;;;;;12.75;6.20;;;1.60;99.90;;;;;;5121737;27;20297;-60
2024/01/28 04:54:35;;;;;;;13.98;6.18;;;1.60;99.90;;;;;;5139486;27;20347;-60
2024/01/28 04:57:01;;;;;;;13.82;6.28;;;1.60;99.90;;;;;;5139415;27;20027;-60
2024/01/28 04:59:30;;;;;;;12.75;6.18;;;1.40;99.90;;;;;;5121655;27;20106;-61
2024/01/28 05:01:56;;;;;;;12.90;6.80;;;1.50;99.90;;;;;;5104168;27;20042;-61
2024/01/28 05:04:22;;;;;;;13.68;6.18;;;1.40;99.90;;;;;;5139266;27;20098;-60
2024/01/28 05:06:48;;;;;;;16.83;6.50;;;1.40;99.90;;;;;;5121461;27;20074;-61
2024/01/28 05:09:16;;;;;;;8.95;6.00;;;1.40;99.90;;;;;;5121365;27;20059;-60
2024/01/28 05:11:42;;;;;;;9.45;5.68;;;1.50;99.90;;;;;;5139046;27;20023;-60
2024/01/28 05:14:08;;;;;;;13.38;5.85;;;1.40;99.90;;;;;;5139105;27;20031;-60
2024/01/28 05:16:34;;;;;;;9.95;5.78;;;1.40;99.90;;;;;;5139094;27;20402;-60
2024/01/28 05:19:02;;;;;;;13.80;5.68;;;1.40;99.90;;;;;;5139042;27;20038;-60
2024/01/28 05:21:28;;;;;;;11.07;5.63;;;1.40;99.90;;;;;;5104386;27;20079;-61
2024/01/28 05:23:54;;;;;;;9.32;5.68;;;1.40;99.90;;;;;;5138989;27;20136;-60
2024/01/28 05:26:20;;;;;;;12.77;6.10;;;1.40;99.90;;;;;;5138853;27;20034;-61
2024/01/28 05:28:46;;;;;;;11.68;5.85;;;1.40;99.90;;;;;;5139041;27;20035;-61
2024/01/28 05:31:12;;;;;;;11.73;6.15;;;1.40;99.90;;;;;;5139010;27;20402;-61
2024/01/28 05:33:38;;;;;;;12.07;5.85;;;1.40;99.90;;;;;;5121078;27;20121;-61
2024/01/28 05:36:11;;;;;;;9.73;6.10;;;1.40;99.90;;;;;;5120887;27;20104;-61
2024/01/28 05:38:36;;;;;;;14.55;5.38;;;1.40;99.90;;;;;;5103720;27;20489;-61
2024/01/28 05:41:02;;;;;;;11.38;5.75;;;1.40;99.90;;;;;;5138649;27;20117;-60
2024/01/28 05:43:28;;;;;;;11.93;5.43;;;1.50;99.90;;;;;;5138578;27;20310;-60
2024/01/28 05:45:54;;;;;;;12.45;5.38;;;1.60;99.90;;;;;;5138535;27;20023;-63
2024/01/28 05:48:19;;;;;;;12.07;5.57;;;1.60;99.90;;;;;;5120762;27;20124;-60
2024/01/28 05:50:45;;;;;;;9.32;5.13;;;1.50;99.90;;;;;;5138578;27;20122;-61
2024/01/28 05:53:11;;;;;;;11.43;5.13;;;1.40;99.90;;;;;;5103633;27;20096;-60
2024/01/28 05:55:37;;;;;;;13.38;5.50;;;1.40;99.90;;;;;;5120629;27;20034;-62
2024/01/28 05:58:03;;;;;;;12.18;5.03;;;1.40;99.90;;;;;;5138390;27;20353;-60
2024/01/28 06:00:29;;;;;;;11.68;5.32;;;1.40;99.90;;;;;;5138341;27;20023;-61
2024/01/28 06:02:55;;;;;;;10.07;5.28;;;1.40;99.90;;;;;;5103513;27;20023;-60
2024/01/28 06:05:21;;;;;;;10.68;5.13;;;1.40;99.90;;;;;;5138125;27;20424;-61
2024/01/28 06:07:47;;;;;;;6.28;4.53;;;1.40;99.90;;;;;;5120257;27;20031;-60
2024/01/28 06:10:13;;;;;;;11.32;5.38;;;1.50;99.90;;;;;;5120680;27;20079;-61
2024/01/28 06:12:38;;;;;;;9.18;4.90;;;1.40;99.90;;;;;;5137966;27;20027;-62
2024/01/28 06:15:08;;;;;;;10.02;4.72;;;1.40;99.90;;;;;;5138223;27;20109;-61
2024/01/28 06:17:36;;;;;;;8.90;4.30;;;1.30;99.90;;;;;;5138050;27;20076;-61
2024/01/28 06:20:06;;;;;;;6.28;4.20;;;1.30;99.90;;;;;;5120586;27;20042;-61
2024/01/28 06:22:33;;;;;;;8.70;4.57;;;1.40;99.90;;;;;;5120425;28;20035;-61
2024/01/28 06:25:00;;;;;;;9.85;4.78;;;1.40;99.90;;;;;;5120044;28;20054;-62
2024/01/28 06:27:26;;;;;;;8.60;4.38;;;1.40;99.90;;;;;;5137897;28;20057;-61
2024/01/28 06:29:52;;;;;;;8.85;4.70;;;1.30;99.90;;;;;;5137966;28;20019;-62
2024/01/28 06:32:18;;;;;;;8.65;4.55;;;1.40;99.90;;;;;;5137918;28;20027;-61
2024/01/28 06:34:44;;;;;;;8.32;4.63;;;1.40;99.90;;;;;;5086507;28;20027;-61
2024/01/28 06:37:10;;;;;;;13.68;5.10;;;1.40;99.90;;;;;;5137869;28;20027;-61
2024/01/28 06:39:36;;;;;;;6.72;4.32;;;1.50;99.90;;;;;;5120065;28;20148;-61
2024/01/28 06:42:02;;;;;;;11.52;4.63;;;1.50;99.90;;;;;;5103284;28;20043;-61
2024/01/28 06:44:28;;;;;;;7.65;4.50;;;1.40;99.90;;;;;;5137826;28;20114;-61
2024/01/28 06:46:53;;;;;;;8.93;4.20;;;1.40;99.90;;;;;;5119791;28;20070;-62
2024/01/28 06:49:20;;;;;;;5.78;4.13;;;1.50;99.90;;;;;;5137686;28;20035;-62
2024/01/28 06:51:45;;;;;;;7.80;4.27;;;1.50;99.90;;;;;;5137767;28;20035;-60
2024/01/28 06:54:11;;;;;;;8.55;4.20;;;1.40;99.90;;;;;;5086185;28;20034;-61
2024/01/28 06:56:37;;;;;;;9.52;4.65;;;1.30;99.90;;;;;;5119926;28;20414;-61
2024/01/28 06:59:03;;;;;;;9.48;4.43;;;1.30;99.90;;;;;;5139130;27;20035;-61
2024/01/28 07:01:29;;;;;;;11.00;4.78;;;1.30;99.90;;;;;;5141640;27;20023;-60
2024/01/28 07:03:55;;;;;;;15.60;4.82;;;1.30;99.90;;;;;;5123929;27;20421;-61
2024/01/28 07:06:21;;;;;;;10.05;4.18;;;1.30;99.90;;;;;;5141563;27;20039;-61
2024/01/28 07:08:47;;;;;;;11.75;4.97;;;1.20;99.90;;;;;;5141552;27;20474;-61
2024/01/28 07:11:13;;;;;;;13.52;4.57;;;1.20;99.90;;;;;;5141558;27;20030;-61
2024/01/28 07:13:40;;;;;;;7.65;4.88;;;1.30;99.90;;;;;;5141362;27;20030;-62
2024/01/28 07:16:06;;;;;;;9.82;4.80;;;1.20;99.90;;;;;;5123532;27;20035;-61
2024/01/28 07:18:33;;;;;;;9.35;4.80;;;1.20;99.90;;;;;;5106426;27;20050;-61
2024/01/28 07:20:59;;;;;;;11.13;4.63;;;1.20;99.90;;;;;;5123573;27;20023;-61
2024/01/28 07:23:25;;;;;;;8.48;4.65;;;1.20;99.90;;;;;;5141401;27;20064;-61
2024/01/28 07:25:51;;;;;;;9.13;4.45;;;1.20;99.90;;;;;;5141136;27;20043;-60
2024/01/28 07:28:16;;;;;;;9.55;4.80;;;1.10;99.90;;;;;;5141191;27;20453;-61
2024/01/28 07:30:43;;;;;;;6.82;4.28;;;1.20;99.90;;;;;;5141121;27;20106;-62
2024/01/28 07:33:09;;;;;;;9.68;4.35;;;1.20;99.90;;;;;;5140920;27;20397;-61
2024/01/28 07:35:35;;;;;;;7.80;4.15;;;1.20;99.90;;;;;;5105933;27;20050;-61
2024/01/28 07:38:01;;;;;;;10.63;4.65;;;1.20;99.90;;;;;;5140796;27;20050;-62
2024/01/28 07:40:27;;;;;;;7.20;3.75;;;1.20;99.90;;;;;;5106304;27;20027;-62
2024/01/28 07:42:55;;;;;;;7.65;4.20;;;1.20;99.90;;;;;;5106086;27;20046;-61
2024/01/28 07:45:21;;;;;;;12.05;4.97;;;1.20;99.90;;;;;;5122967;27;20100;-61
2024/01/28 07:47:47;;;;;;;8.88;4.65;;;1.20;99.90;;;;;;5140754;27;20034;-61
2024/01/28 07:50:12;;;;;;;11.15;4.43;;;1.30;99.90;;;;;;5140979;27;20035;-61
2024/01/28 07:52:38;;;;;;;13.27;4.78;;;1.30;99.90;;;;;;5122755;27;20111;-61
2024/01/28 07:55:05;;;;;;;9.88;4.55;;;1.40;99.90;;;;;;5122790;27;20023;-61
2024/01/28 07:57:31;;;;;;;8.13;4.30;;;1.40;99.90;;;;;;5140639;27;20027;-62
2024/01/28 07:59:57;;;;;;;8.98;4.28;;;1.40;99.90;;;;;;5105797;27;20031;-61
2024/01/28 08:02:23;;;;;;;9.05;4.28;;;1.40;99.90;;;;;;5122578;27;20046;-60
2024/01/28 08:04:49;;;;;;;9.65;4.18;;;1.40;99.90;;;;;;5105722;27;20417;-61
2024/01/28 08:07:15;;;;;;;8.30;4.00;;;1.60;99.90;;;;;;5122488;27;20045;-61
2024/01/28 08:09:41;;;;;;;7.90;4.55;;;1.60;99.90;;;;;;5140291;27;20310;-61
2024/01/28 08:12:07;;;;;;;9.45;4.70;;;1.70;99.90;;;;;;5122529;27;20023;-61
2024/01/28 08:14:33;;;;;;;6.30;4.10;;;1.70;99.90;;;;;;5140277;27;20032;-61
2024/01/28 08:16:59;;;;;;;6.57;3.67;;;1.80;99.90;;;;;;5140242;27;20035;-62
2024/01/28 08:19:25;;;;;;;8.82;3.75;;;1.80;97.30;;;;;;5140109;27;20057;-61
2024/01/28 08:21:51;;;;;;;7.82;3.75;;;1.90;95.20;;;;;;5122418;27;20275;-62
2024/01/28 08:24:17;;;;;;;10.15;4.10;;;2.00;93.40;;;;;;5140097;27;20027;-62
2024/01/28 08:26:43;;;;;;;7.65;4.10;;;2.10;90.50;;;;;;5139978;27;20423;-62
2024/01/28 08:29:08;;;;;;;9.43;3.63;;;2.20;87.60;;;;;;5139987;27;20110;-62
2024/01/28 08:31:34;;;;;;;6.57;3.63;;;2.20;78.90;;;;;;5121934;27;20295;-62
2024/01/28 08:34:00;;;;;;;7.45;4.20;;;2.30;79.70;;;;;;5122040;27;20031;-62
2024/01/28 08:36:27;;;;;;;5.13;3.47;;;2.40;64.30;;;;;;5140191;27;20361;-62
2024/01/28 08:38:52;;;;;;;7.88;3.80;;;2.40;63.00;;;;;;5139723;27;20043;-61
2024/01/28 08:41:18;;;;;;;6.72;3.38;;;2.50;63.80;;;;;;5121939;27;20063;-62
2024/01/28 08:43:44;;;;;;;9.77;3.75;;;2.60;61.40;;;;;;5139623;27;20034;-61
2024/01/28 08:46:10;;;;;;;7.00;3.70;;;2.70;57.50;;;;;;5139693;27;20035;-62
2024/01/28 08:48:37;;;;;;;8.10;3.25;;;2.70;53.70;;;;;;5121918;27;20123;-62
2024/01/28 08:51:03;;;;;;;8.10;3.60;;;2.80;53.40;;;;;;5121664;27;20050;-61
2024/01/28 08:53:29;;;;;;;6.55;3.60;;;2.90;48.50;;;;;;5121549;27;20035;-63
2024/01/28 08:55:56;;;;;;;5.13;3.13;;;3.00;44.20;;;;;;5139442;27;20027;-61
2024/01/28 08:58:22;;;;;;;5.30;3.10;;;3.10;31.00;;;;;;5139255;27;20023;-59
2024/01/28 09:00:47;;;;;;;7.82;3.47;;;3.10;32.80;;;;;;5139261;27;20035;-60
2024/01/28 09:03:13;;;;;;;4.55;2.90;;;3.20;31.40;;;;;;5121463;27;20056;-60
2024/01/28 09:05:39;;;;;;;6.88;3.30;;;3.30;27.90;;;;;;5139200;27;20398;-61
2024/01/28 09:08:05;;;;;;;7.28;3.03;;;3.30;15.40;;;;;;5139152;27;20031;-60
2024/01/28 09:10:31;;;;;;;4.97;2.78;;;3.30;6.60;;;;;;5139105;27;20068;-60
2024/01/28 09:12:57;;;;;;;6.82;2.83;;;3.40;1.00;;;;;;5139358;27;20333;-61
2024/01/28 09:15:23;;;;;;;6.20;2.70;;;3.50;1.00;;;;;;5121371;27;20156;-62
2024/01/28 09:17:49;;;;;;;4.50;3.10;;;3.50;1.00;;;;;;5121239;27;20046;-61
2024/01/28 09:20:15;;;;;;;6.75;2.72;;;3.60;1.00;;;;;;5139007;27;20378;-61
2024/01/28 09:22:41;;;;;;;4.35;3.13;;;3.70;1.00;;;;;;5138376;27;20034;-60
2024/01/28 09:25:07;;;;;;;4.60;3.00;;;3.80;1.00;;;;;;5104357;27;20027;-61
2024/01/28 09:27:33;;;;;;;7.10;2.85;;;3.70;1.00;;;;;;5138779;27;20417;-61
2024/01/28 09:29:59;;;;;;;7.75;2.90;;;3.90;1.00;;;;;;5138843;27;20069;-61
2024/01/28 09:32:25;;;;;;;6.40;2.80;;;4.00;1.00;;;;;;5120771;27;20039;-61
2024/01/28 09:34:51;;;;;;;6.50;2.92;;;4.10;1.00;;;;;;5121035;27;20023;-61
2024/01/28 09:37:18;;;;;;;8.02;3.55;;;4.20;1.00;;;;;;5138744;27;20286;-60
2024/01/28 09:39:44;;;;;;;7.28;2.92;;;4.20;1.00;;;;;;5120912;27;20081;-61
2024/01/28 09:42:34;;;;;;;8.07;3.25;;;4.30;1.00;;;;;;5121295;27;20065;-62
2024/01/28 09:45:00;;;;;;;6.75;2.95;;;4.40;1.00;;;;;;5138545;27;20376;-61
2024/01/28 09:47:27;;;;;;;7.03;3.10;;;4.50;1.00;;;;;;5138580;27;20140;-60
2024/01/28 09:49:55;;;;;;;6.43;3.35;;;4.60;1.00;;;;;;5103881;27;20034;-60
2024/01/28 09:52:21;;;;;;;5.32;2.97;;;4.80;1.00;;;;;;5138226;27;20054;-59
2024/01/28 09:54:47;;;;;;;4.75;2.35;;;4.80;1.00;;;;;;5103933;27;20412;-60
2024/01/28 09:57:14;;;;;;;7.82;3.00;;;4.90;1.00;;;;;;5138236;27;20036;-60
2024/01/28 09:59:40;;;;;;;6.10;3.13;;;5.10;1.00;;;;;;5138152;27;20051;-60
2024/01/28 10:02:07;;;;;;;6.53;3.10;;;5.20;1.00;;;;;;5120528;27;20115;-60
2024/01/28 10:04:33;;;;;;;4.82;2.60;;;5.40;1.00;;;;;;5138245;27;20031;-60
2024/01/28 10:07:07;;;;;;;6.07;2.65;;;5.70;1.00;;;;;;5120357;27;20015;-60
2024/01/28 10:09:33;;;;;;;4.20;2.65;;;6.10;1.00;;;;;;5138236;27;20031;-61
2024/01/28 10:12:00;;;;;;;4.43;2.50;;;6.60;1.00;;;;;;5120587;28;20387;-61
2024/01/28 10:14:27;;;;;;;4.95;3.03;;;6.90;1.00;;;;;;5120253;27;20032;-60
2024/01/28 10:16:54;;;;;;;4.75;2.47;;;7.50;99.90;;;;;;5138009;27;20049;-60
2024/01/28 10:19:20;;;;;;;3.95;2.25;;;7.80;99.90;;;;;;5138273;27;20268;-60
2024/01/28 10:21:46;;;;;;;4.30;2.47;;;7.80;99.90;;;;;;5138089;27;20322;-61
2024/01/28 10:24:15;;;;;;;3.58;2.55;;;8.10;99.90;;;;;;5120129;28;20019;-61
2024/01/28 10:26:41;;;;;;;4.50;2.75;;;8.20;99.90;;;;;;5120244;28;20035;-59
2024/01/28 10:29:12;;;;;;;3.70;2.28;;;8.50;99.90;;;;;;5137866;28;20039;-59
2024/01/28 10:31:38;;;;;;;5.25;2.80;;;8.20;99.90;;;;;;5137907;28;20414;-59
2024/01/28 10:34:04;;;;;;;4.65;2.42;;;8.40;99.90;;;;;;5139321;27;20069;-59
2024/01/28 10:36:34;;;;;;;4.60;2.70;;;8.90;99.90;;;;;;5142143;27;20319;-59
2024/01/28 10:39:04;;;;;;;4.40;2.40;;;8.70;99.90;;;;;;5141989;27;20043;-59
2024/01/28 10:41:34;;;;;;;4.78;2.20;;;8.40;99.90;;;;;;5124335;27;20023;-59
2024/01/28 10:44:06;;;;;;;5.10;2.30;;;8.30;99.90;;;;;;5124076;27;20019;-60
2024/01/28 10:46:38;;;;;;;3.67;2.17;;;8.50;99.90;;;;;;5142276;27;20283;-59
2024/01/28 10:49:08;;;;;;;4.90;2.33;;;8.50;99.90;;;;;;5124172;27;20307;-59
2024/01/28 10:51:39;;;;;;;3.50;2.00;;;8.30;99.90;;;;;;5123835;27;20088;-60
2024/01/28 10:54:09;;;;;;;6.40;2.38;;;8.50;99.90;;;;;;5123870;27;20035;-59
2024/01/28 10:56:39;;;;;;;4.32;2.25;;;9.10;99.90;;;;;;5124211;27;20011;-59
2024/01/28 10:59:05;;;;;;;3.33;2.10;;;10.00;99.90;;;;;;5141936;27;20413;-59
2024/01/28 11:01:32;;;;;;;3.70;2.30;;;10.90;99.90;;;;;;5141725;27;20035;-59
2024/01/28 11:03:59;;;;;;;4.93;2.15;;;11.40;99.90;;;;;;5123718;27;20038;-59
2024/01/28 11:06:26;;;;;;;3.75;2.33;;;12.00;99.90;;;;;;5141621;27;20140;-60
2024/01/28 11:08:54;;;;;;;3.67;2.20;;;12.80;99.90;;;;;;5141497;27;20024;-59
2024/01/28 11:11:21;;;;;;;3.60;2.20;;;12.00;99.90;;;;;;5123685;27;20031;-60
2024/01/28 11:13:47;;;;;;;4.25;2.45;;;12.50;99.90;;;;;;5141691;27;20019;-60
2024/01/28 11:16:15;;;;;;;4.15;2.45;;;12.40;99.90;;;;;;5073204;27;20327;-58
2024/01/28 11:18:54;;;;;;;4.35;2.28;;;13.00;99.90;;;;;;5123592;27;20108;-59
2024/01/28 11:21:21;;;;;;;4.95;2.20;;;12.80;99.90;;;;;;5141636;27;20028;-60
2024/01/28 11:23:47;;;;;;;5.20;2.35;;;12.70;99.90;;;;;;5123906;27;20035;-60
2024/01/28 11:26:18;;;;;;;3.92;2.25;;;12.20;99.90;;;;;;5141595;27;20058;-58
2024/01/28 11:28:52;;;;;;;4.40;2.20;;;12.40;99.90;;;;;;5107132;27;20467;-60
2024/01/28 11:31:32;;;;;;;3.58;2.10;;;13.00;99.90;;;;;;5141192;27;20041;-59
2024/01/28 11:34:21;;;;;;;4.95;2.30;;;12.70;99.90;;;;;;5141013;27;20431;-59
2024/01/28 11:36:52;;;;;;;4.38;2.33;;;12.60;99.90;;;;;;5140990;27;20016;-61
2024/01/28 11:39:48;;;;;;;4.47;1.90;;;12.80;99.90;;;;;;5140751;27;20135;-60
2024/01/28 11:42:14;;;;;;;5.03;2.20;;;12.80;99.90;;;;;;5130035;27;20051;-59
2024/01/28 11:44:43;;;;;;;3.38;2.28;;;12.30;99.90;;;;;;5140348;27;20107;-59
2024/01/28 11:47:14;;;;;;;5.78;2.25;;;12.30;99.90;;;;;;5141045;27;20122;-60
2024/01/28 11:49:42;;;;;;;4.43;2.40;;;12.40;99.90;;;;;;5140798;27;20026;-60
2024/01/28 11:52:08;;;;;;;6.03;2.20;;;12.20;99.90;;;;;;5140664;27;20062;-60
2024/01/28 11:54:34;;;;;;;4.85;2.40;;;12.00;99.90;;;;;;5140621;27;20340;-58
2024/01/28 11:57:00;;;;;;;2.90;2.08;;;11.20;99.90;;;;;;5140589;27;20345;-60
2024/01/28 11:59:26;;;;;;;3.67;2.10;;;11.00;99.90;;;;;;5140494;27;20106;-59
2024/01/28 12:01:53;;;;;;;3.45;1.90;;;10.70;99.90;;;;;;5105807;27;20067;-60
2024/01/28 12:04:20;;;;;;;3.28;1.95;;;10.60;99.90;;;;;;5140530;27;20023;-60
2024/01/28 12:06:46;;;;;;;4.85;2.33;;;10.70;99.90;;;;;;5140421;27;20030;-60
2024/01/28 12:09:12;;;;;;;3.15;1.83;;;10.90;99.90;;;;;;5122638;27;20455;-61
2024/01/28 12:11:38;;;;;;;4.68;2.10;;;11.00;99.90;;;;;;5140404;27;20106;-60
2024/01/28 12:14:04;;;;;;;3.50;1.90;;;11.00;99.90;;;;;;5122304;27;20340;-60
2024/01/28 12:16:30;;;;;;;3.92;1.88;;;10.80;99.90;;;;;;5122243;27;20027;-61
2024/01/28 12:18:56;;;;;;;1.98;1.70;;;10.90;99.90;;;;;;5140232;27;20083;-60
2024/01/28 12:21:27;;;;;;;6.30;2.40;;;10.80;99.90;;;;;;5140128;27;20031;-60
2024/01/28 12:23:57;;;;;;;2.97;1.95;;;11.00;99.90;;;;;;5122192;27;20298;-60
2024/01/28 12:26:23;;;;;;;3.92;2.00;;;11.20;99.90;;;;;;5139955;27;20358;-61
2024/01/28 12:28:51;;;;;;;3.88;2.08;;;11.30;99.90;;;;;;5122148;27;20401;-60
2024/01/28 12:31:20;;;;;;;5.30;2.08;;;11.40;99.90;;;;;;5122135;27;20036;-60
2024/01/28 12:33:47;;;;;;;4.60;2.25;;;11.50;99.90;;;;;;5121919;27;20027;-60
2024/01/28 12:36:14;;;;;;;3.90;2.35;;;11.30;99.90;;;;;;5139789;27;20019;-60
2024/01/28 12:38:40;;;;;;;3.55;2.00;;;11.40;99.90;;;;;;5118313;28;20079;-60
2024/01/28 12:41:10;;;;;;;2.70;1.83;;;11.40;99.90;;;;;;5118443;28;20047;-61
2024/01/28 12:43:40;;;;;;;3.25;2.00;;;11.50;99.90;;;;;;5119137;28;20129;-61
2024/01/28 12:46:07;;;;;;;3.50;2.10;;;11.80;99.90;;;;;;5118349;28;20035;-60
2024/01/28 12:48:33;;;;;;;5.32;2.08;;;11.90;99.90;;;;;;5101369;28;20031;-58